createdAt,value
2018-05-01T00:00:11.192Z,99643.00
2018-05-01T00:02:39.680Z,99645.97
2018-05-01T00:05:08.223Z,99643.21
2018-05-01T00:07:36.695Z,99640.75
2018-05-01T00:10:05.231Z,99644.86
2018-05-01T00:12:33.764Z,99643.21
2018-05-01T00:15:02.265Z,99640.59
2018-05-01T00:17:30.765Z,99641.00
2018-05-01T00:19:59.242Z,99639.63
2018-05-01T00:22:27.740Z,99632.93
2018-05-01T00:24:56.194Z,99636.20
2018-05-01T00:27:24.680Z,99643.05
2018-05-01T00:29:53.146Z,99637.77
2018-05-01T00:32:21.684Z,99641.83
2018-05-01T00:34:50.140Z,99645.41
2018-05-01T00:37:18.645Z,99637.77
2018-05-01T00:39:47.110Z,99641.45
2018-05-01T00:42:15.608Z,99641.05
2018-05-01T00:44:44.101Z,99637.77
2018-05-01T00:47:12.577Z,99637.17
2018-05-01T00:49:41.113Z,99633.62
2018-05-01T00:52:21.257Z,99637.47
2018-05-01T00:54:49.794Z,99633.80
2018-05-01T00:57:18.259Z,99639.44
2018-05-01T00:59:46.712Z,99632.05
2018-05-01T01:02:15.202Z,99625.92
2018-05-01T01:04:43.701Z,99643.06
2018-05-01T01:07:12.244Z,99641.03
2018-05-01T01:09:40.693Z,99630.91
2018-05-01T01:12:09.203Z,99633.13
2018-05-01T01:14:37.712Z,99627.38
2018-05-01T01:17:06.283Z,99632.45
2018-05-01T01:19:34.680Z,99634.23
2018-05-01T01:22:03.199Z,99633.18
2018-05-01T01:24:31.661Z,99630.72
2018-05-01T01:27:00.104Z,99631.80
2018-05-01T01:29:28.604Z,99631.81
2018-05-01T01:32:02.652Z,99627.27
2018-05-01T01:34:31.188Z,99631.41
2018-05-01T01:36:59.142Z,99631.16
2018-05-01T01:39:27.120Z,99632.35
2018-05-01T01:41:55.067Z,99631.14
2018-05-01T01:44:23.012Z,99633.08
2018-05-01T01:46:50.940Z,99636.50
2018-05-01T01:49:18.897Z,99632.19
2018-05-01T01:51:46.876Z,99632.17
2018-05-01T01:54:14.805Z,99635.87
2018-05-01T01:56:42.756Z,99637.54
2018-05-01T01:59:10.685Z,99637.66
2018-05-01T02:01:38.651Z,99635.34
2018-05-01T02:04:06.600Z,99633.31
2018-05-01T02:06:34.554Z,99639.19
2018-05-01T02:09:02.503Z,99641.23
2018-05-01T02:11:30.510Z,99644.13
2018-05-01T02:13:58.422Z,99643.86
2018-05-01T02:16:26.397Z,99648.47
2018-05-01T02:18:54.328Z,99646.02
2018-05-01T02:21:22.281Z,99647.00
2018-05-01T02:23:50.248Z,99637.42
2018-05-01T02:26:18.210Z,99653.26
2018-05-01T02:28:46.129Z,99647.67
2018-05-01T02:31:14.088Z,99647.39
2018-05-01T02:33:42.077Z,99646.17
2018-05-01T02:36:10.026Z,99645.47
2018-05-01T02:38:37.968Z,99645.75
2018-05-01T02:41:05.942Z,99651.76
2018-05-01T02:43:33.871Z,99652.58
2018-05-01T02:46:01.824Z,99655.70
2018-05-01T02:48:29.756Z,99659.94
2018-05-01T02:50:57.754Z,99661.19
2018-05-01T02:53:25.722Z,99651.91
2018-05-01T02:55:53.690Z,99652.86
2018-05-01T02:58:21.669Z,99660.06
2018-05-01T03:00:49.650Z,99655.01
2018-05-01T03:03:17.624Z,99646.67
2018-05-01T03:05:45.564Z,99661.02
2018-05-01T03:08:13.546Z,99652.85
2018-05-01T03:10:41.493Z,99657.88
2018-05-01T03:13:09.429Z,99662.66
2018-05-01T03:15:37.416Z,99658.72
2018-05-01T03:18:05.350Z,99661.86
2018-05-01T03:20:33.325Z,99662.84
2018-05-01T03:23:01.253Z,99656.13
2018-05-01T03:25:29.211Z,99665.55
2018-05-01T03:27:57.128Z,99673.77
2018-05-01T03:30:25.121Z,99656.23
2018-05-01T03:32:53.076Z,99675.66
2018-05-01T03:35:21.143Z,99676.45
2018-05-01T03:37:49.060Z,99678.52
2018-05-01T03:40:17.024Z,99683.86
2018-05-01T03:42:44.944Z,99681.41
2018-05-01T03:45:12.860Z,99683.75
2018-05-01T03:47:40.816Z,99685.66
2018-05-01T03:50:08.782Z,99692.50
2018-05-01T03:52:36.708Z,99693.86
2018-05-01T03:55:04.657Z,99697.42
2018-05-01T03:57:32.621Z,99692.35
2018-05-01T04:00:00.544Z,99685.40
2018-05-01T04:02:28.489Z,99701.55
2018-05-01T04:04:56.402Z,99696.88
2018-05-01T04:07:24.348Z,99702.22
2018-05-01T04:09:52.297Z,99699.61
2018-05-01T04:12:20.220Z,99695.20
2018-05-01T04:14:48.183Z,99702.17
2018-05-01T04:17:16.123Z,99698.17
2018-05-01T04:19:44.081Z,99685.06
2018-05-01T04:22:11.991Z,99697.15
2018-05-01T04:24:39.948Z,99701.78
2018-05-01T04:27:07.886Z,99701.47
2018-05-01T04:29:35.864Z,99706.94
2018-05-01T04:32:03.793Z,99698.16
2018-05-01T04:34:31.779Z,99698.14
2018-05-01T04:36:59.760Z,99702.36
2018-05-01T04:39:27.739Z,99695.08
2018-05-01T04:41:55.708Z,99702.40
2018-05-01T04:44:23.642Z,99700.00
2018-05-01T04:46:51.563Z,99687.26
2018-05-01T04:49:19.489Z,99697.92
2018-05-01T04:51:47.477Z,99697.89
2018-05-01T04:54:15.408Z,99703.83
2018-05-01T04:56:43.346Z,99707.23
2018-05-01T04:59:11.308Z,99698.27
2018-05-01T05:01:39.245Z,99702.27
2018-05-01T05:04:07.227Z,99690.06
2018-05-01T05:06:35.196Z,99707.41
2018-05-01T05:09:03.132Z,99697.04
2018-05-01T05:11:31.072Z,99704.30
2018-05-01T05:13:59.046Z,99710.34
2018-05-01T05:16:26.964Z,99711.32
2018-05-01T05:18:54.933Z,99714.77
2018-05-01T05:21:22.860Z,99722.23
2018-05-01T05:23:50.820Z,99714.70
2018-05-01T05:26:18.745Z,99715.70
2018-05-01T05:28:46.740Z,99710.63
2018-05-01T05:31:14.672Z,99714.58
2018-05-01T05:33:42.628Z,99713.07
2018-05-01T05:36:10.548Z,99717.18
2018-05-01T05:38:38.728Z,99714.13
2018-05-01T05:41:06.699Z,99714.76
2018-05-01T05:43:34.668Z,99714.50
2018-05-01T05:46:02.640Z,99714.75
2018-05-01T05:48:30.604Z,99711.84
2018-05-01T05:50:58.522Z,99715.38
2018-05-01T05:53:26.509Z,99715.78
2018-05-01T05:55:54.482Z,99711.48
2018-05-01T05:58:22.433Z,99710.47
2018-05-01T06:00:50.392Z,99702.58
2018-05-01T06:03:18.316Z,99713.41
2018-05-01T06:05:46.280Z,99718.12
2018-05-01T06:08:14.301Z,99721.00
2018-05-01T06:10:42.216Z,99718.98
2018-05-01T06:13:10.180Z,99720.08
2018-05-01T06:15:38.108Z,99720.41
2018-05-01T06:18:06.080Z,99720.28
2018-05-01T06:20:34.041Z,99705.21
2018-05-01T06:23:01.972Z,99714.48
2018-05-01T06:25:29.941Z,99706.94
2018-05-01T06:27:57.878Z,99710.74
2018-05-01T06:30:25.838Z,99703.72
2018-05-01T06:32:53.770Z,99707.41
2018-05-01T06:35:21.720Z,99699.48
2018-05-01T06:37:49.691Z,99704.89
2018-05-01T06:40:17.612Z,99701.62
2018-05-01T06:42:45.564Z,99702.61
2018-05-01T06:45:13.488Z,99697.23
2018-05-01T06:47:41.484Z,99689.37
2018-05-01T06:50:09.405Z,99685.72
2018-05-01T06:52:37.437Z,99688.67
2018-05-01T06:55:05.368Z,99689.16
2018-05-01T06:57:33.297Z,99691.28
2018-05-01T07:00:01.259Z,99692.11
2018-05-01T07:02:29.216Z,99689.50
2018-05-01T07:04:57.192Z,99696.46
2018-05-01T07:07:25.114Z,99685.92
2018-05-01T07:09:53.041Z,99681.98
2018-05-01T07:12:21.032Z,99678.55
2018-05-01T07:14:48.965Z,99680.27
2018-05-01T07:17:16.881Z,99677.42
2018-05-01T07:19:44.836Z,99690.61
2018-05-01T07:22:12.784Z,99692.56
2018-05-01T07:24:40.737Z,99689.77
2018-05-01T07:27:08.647Z,99688.47
2018-05-01T07:29:36.603Z,99689.67
2018-05-01T07:32:04.507Z,99698.55
2018-05-01T07:34:32.493Z,99691.56
2018-05-01T07:37:00.456Z,99691.78
2018-05-01T07:39:28.377Z,99677.92
2018-05-01T07:41:56.337Z,99682.91
2018-05-01T07:44:24.304Z,99686.89
2018-05-01T07:46:52.256Z,99676.28
2018-05-01T07:49:20.226Z,99681.68
2018-05-01T07:51:48.193Z,99680.95
2018-05-01T07:54:16.180Z,99673.41
2018-05-01T07:56:44.125Z,99675.98
2018-05-01T07:59:12.093Z,99680.03
2018-05-01T08:01:40.040Z,99675.95
2018-05-01T08:04:07.936Z,99677.48
2018-05-01T08:06:35.902Z,99674.89
2018-05-01T08:09:03.831Z,99673.91
2018-05-01T08:11:31.788Z,99674.16
2018-05-01T08:13:59.713Z,99672.81
2018-05-01T08:16:27.708Z,99677.34
2018-05-01T08:18:55.664Z,99679.38
2018-05-01T08:21:23.570Z,99676.25
2018-05-01T08:23:51.565Z,99673.77
2018-05-01T08:26:19.480Z,99673.31
2018-05-01T08:28:47.434Z,99668.55
2018-05-01T08:31:15.384Z,99665.67
2018-05-01T08:33:43.323Z,99667.44
2018-05-01T08:36:11.244Z,99664.23
2018-05-01T08:38:39.204Z,99661.59
2018-05-01T08:41:07.156Z,99663.71
2018-05-01T08:43:35.072Z,99659.75
2018-05-01T08:46:03.016Z,99650.42
2018-05-01T08:48:30.937Z,99654.56
2018-05-01T08:50:58.936Z,99653.09
2018-05-01T08:53:26.900Z,99651.84
2018-05-01T08:55:54.908Z,99647.91
2018-05-01T08:58:22.830Z,99644.93
2018-05-01T09:00:50.788Z,99647.44
2018-05-01T09:03:18.710Z,99636.72
2018-05-01T09:05:46.664Z,99631.96
2018-05-01T09:08:14.558Z,99633.41
2018-05-01T09:10:42.512Z,99634.20
2018-05-01T09:13:10.444Z,99634.25
2018-05-01T09:15:38.397Z,99620.48
2018-05-01T09:18:06.536Z,99631.12
2018-05-01T09:20:34.349Z,99635.20
2018-05-01T09:23:02.264Z,99630.53
2018-05-01T09:25:30.233Z,99627.22
2018-05-01T09:27:58.144Z,99622.62
2018-05-01T09:30:26.108Z,99622.31
2018-05-01T09:32:54.028Z,99617.47
2018-05-01T09:35:21.988Z,99617.22
2018-05-01T09:37:49.952Z,99618.53
2018-05-01T09:40:17.903Z,99612.50
2018-05-01T09:42:45.877Z,99607.95
2018-05-01T09:45:13.830Z,99613.66
2018-05-01T09:47:42.680Z,99609.69
2018-05-01T09:50:10.660Z,99606.99
2018-05-01T09:52:39.138Z,99616.31
2018-05-01T09:55:07.633Z,99606.83
2018-05-01T09:57:36.089Z,99610.52
2018-05-01T10:00:04.617Z,99613.36
2018-05-01T10:02:33.106Z,99610.63
2018-05-01T10:05:01.575Z,99608.19
2018-05-01T10:07:30.099Z,99604.77
2018-05-01T10:09:58.544Z,99603.86
2018-05-01T10:12:27.042Z,99602.77
2018-05-01T10:14:55.508Z,99597.62
2018-05-01T10:17:24.000Z,99585.27
2018-05-01T10:19:52.465Z,99602.89
2018-05-01T10:22:20.964Z,99600.03
2018-05-01T10:24:49.446Z,99602.09
2018-05-01T10:27:17.929Z,99591.73
2018-05-01T10:29:46.424Z,99590.37
2018-05-01T10:32:14.932Z,99577.96
2018-05-01T10:34:43.377Z,99592.92
2018-05-01T10:37:11.880Z,99589.69
2018-05-01T10:39:40.385Z,99587.25
2018-05-01T10:42:08.868Z,99585.67
2018-05-01T10:44:37.321Z,99582.08
2018-05-01T10:47:05.780Z,99583.16
2018-05-01T10:49:34.289Z,99588.91
2018-05-01T10:52:02.781Z,99586.66
2018-05-01T10:54:31.245Z,99584.16
2018-05-01T10:56:59.721Z,99579.58
2018-05-01T10:59:28.172Z,99581.13
2018-05-01T11:01:56.695Z,99575.34
2018-05-01T11:04:25.152Z,99579.00
2018-05-01T11:06:53.603Z,99572.02
2018-05-01T11:09:22.095Z,99561.34
2018-05-01T11:11:50.618Z,99570.58
2018-05-01T11:14:19.116Z,99567.33
2018-05-01T11:16:47.596Z,99570.61
2018-05-01T11:19:16.052Z,99560.08
2018-05-01T11:21:44.516Z,99560.20
2018-05-01T11:24:13.010Z,99559.86
2018-05-01T11:26:41.496Z,99542.19
2018-05-01T11:29:09.956Z,99540.59
2018-05-01T11:31:38.438Z,99543.63
2018-05-01T11:34:06.889Z,99541.62
2018-05-01T11:36:35.388Z,99540.73
2018-05-01T11:39:03.945Z,99543.91
2018-05-01T11:41:32.448Z,99531.66
2018-05-01T11:44:00.906Z,99538.09
2018-05-01T11:46:29.577Z,99532.84
2018-05-01T11:48:57.925Z,99525.45
2018-05-01T11:51:26.375Z,99524.52
2018-05-01T11:53:54.862Z,99527.64
2018-05-01T11:56:23.317Z,99521.64
2018-05-01T11:58:51.804Z,99518.56
2018-05-01T12:01:20.261Z,99513.36
2018-05-01T12:03:48.762Z,99523.67
2018-05-01T12:06:17.217Z,99500.98
2018-05-01T12:08:45.720Z,99511.31
2018-05-01T12:11:14.179Z,99517.34
2018-05-01T12:13:42.629Z,99512.96
2018-05-01T12:16:11.222Z,99515.53
2018-05-01T12:18:39.707Z,99509.73
2018-05-01T12:21:08.209Z,99503.98
2018-05-01T12:23:36.660Z,99503.59
2018-05-01T12:26:05.216Z,99496.77
2018-05-01T12:28:33.720Z,99490.64
2018-05-01T12:31:02.155Z,99482.11
2018-05-01T12:33:30.637Z,99478.64
2018-05-01T12:35:59.080Z,99479.38
2018-05-01T12:38:27.580Z,99472.52
2018-05-01T12:40:56.036Z,99477.30
2018-05-01T12:43:24.530Z,99476.16
2018-05-01T12:45:53.034Z,99482.26
2018-05-01T12:48:21.663Z,99477.28
2018-05-01T12:50:50.176Z,99481.91
2018-05-01T12:53:18.658Z,99483.58
2018-05-01T12:55:47.108Z,99485.73
2018-05-01T12:58:15.602Z,99487.61
2018-05-01T13:00:44.047Z,99492.72
2018-05-01T13:03:12.539Z,99485.10
2018-05-01T13:05:41.007Z,99483.78
2018-05-01T13:08:09.497Z,99478.16
2018-05-01T13:10:38.030Z,99486.72
2018-05-01T13:13:06.613Z,99483.48
2018-05-01T13:15:35.052Z,99478.53
2018-05-01T13:18:03.572Z,99488.14
2018-05-01T13:20:32.068Z,99491.59
2018-05-01T13:23:00.570Z,99496.44
2018-05-01T13:25:29.108Z,99492.47
2018-05-01T13:27:57.569Z,99492.83
2018-05-01T13:30:26.048Z,99490.41
2018-05-01T13:32:54.500Z,99500.76
2018-05-01T13:35:22.992Z,99493.59
2018-05-01T13:37:51.495Z,99485.67
2018-05-01T13:40:19.974Z,99492.45
2018-05-01T13:42:48.428Z,99495.08
2018-05-01T13:45:16.968Z,99484.07
2018-05-01T13:47:45.404Z,99500.59
2018-05-01T13:50:13.892Z,99494.17
2018-05-01T13:52:42.367Z,99492.97
2018-05-01T13:55:10.857Z,99483.71
2018-05-01T13:57:39.336Z,99478.34
2018-05-01T14:00:07.785Z,99483.27
2018-05-01T14:02:36.276Z,99485.61
2018-05-01T14:05:04.763Z,99485.11
2018-05-01T14:07:33.201Z,99483.91
2018-05-01T14:10:01.704Z,99472.86
2018-05-01T14:12:30.219Z,99478.47
2018-05-01T14:14:58.700Z,99475.03
2018-05-01T14:17:27.190Z,99468.41
2018-05-01T14:19:55.633Z,99467.81
2018-05-01T14:22:24.085Z,99460.89
2018-05-01T14:24:52.576Z,99454.23
2018-05-01T14:27:21.068Z,99452.18
2018-05-01T14:29:49.556Z,99452.40
2018-05-01T14:32:18.005Z,99451.70
2018-05-01T14:34:46.497Z,99447.43
2018-05-01T14:37:14.956Z,99445.32
2018-05-01T14:39:43.461Z,99444.75
2018-05-01T14:42:12.062Z,99434.47
2018-05-01T14:44:40.492Z,99443.80
2018-05-01T14:47:08.977Z,99440.83
2018-05-01T14:49:37.488Z,99447.14
2018-05-01T14:52:05.940Z,99446.45
2018-05-01T14:54:34.486Z,99442.48
2018-05-01T14:57:02.978Z,99444.27
2018-05-01T14:59:31.450Z,99442.03
2018-05-01T15:01:59.940Z,99443.20
2018-05-01T15:04:28.396Z,99438.16
2018-05-01T15:06:56.894Z,99440.31
2018-05-01T15:09:25.348Z,99435.29
2018-05-01T15:11:53.884Z,99431.95
2018-05-01T15:14:22.329Z,99434.41
2018-05-01T15:16:50.839Z,99437.32
2018-05-01T15:19:19.336Z,99432.38
2018-05-01T15:21:47.797Z,99427.83
2018-05-01T15:24:16.245Z,99427.37
2018-05-01T15:26:44.689Z,99415.79
2018-05-01T15:29:13.149Z,99416.27
2018-05-01T15:31:41.610Z,99417.20
2018-05-01T15:34:10.126Z,99402.79
2018-05-01T15:36:38.588Z,99405.41
2018-05-01T15:39:07.048Z,99406.41
2018-05-01T15:41:35.553Z,99393.25
2018-05-01T15:44:04.057Z,99388.45
2018-05-01T15:46:32.519Z,99397.50
2018-05-01T15:49:01.042Z,99403.28
2018-05-01T15:51:29.513Z,99385.78
2018-05-01T15:53:57.988Z,99388.30
2018-05-01T15:56:26.535Z,99398.55
2018-05-01T15:58:55.011Z,99398.16
2018-05-01T16:01:23.497Z,99392.42
2018-05-01T16:03:52.017Z,99386.41
2018-05-01T16:06:20.484Z,99380.59
2018-05-01T16:08:48.989Z,99384.66
2018-05-01T16:11:17.430Z,99388.30
2018-05-01T16:13:45.943Z,99387.04
2018-05-01T16:16:14.420Z,99383.86
2018-05-01T16:18:42.908Z,99384.44
2018-05-01T16:21:11.480Z,99390.91
2018-05-01T16:23:39.928Z,99386.53
2018-05-01T16:26:08.431Z,99391.95
2018-05-01T16:28:36.880Z,99382.67
2018-05-01T16:31:05.389Z,99383.02
2018-05-01T16:33:33.854Z,99383.05
2018-05-01T16:36:02.463Z,99391.64
2018-05-01T16:38:30.936Z,99393.39
2018-05-01T16:40:59.436Z,99396.91
2018-05-01T16:43:27.919Z,99396.95
2018-05-01T16:45:56.375Z,99382.28
2018-05-01T16:48:24.872Z,99402.55
2018-05-01T16:50:53.438Z,99405.28
2018-05-01T16:53:21.923Z,99404.70
2018-05-01T16:55:50.413Z,99397.39
2018-05-01T16:58:18.904Z,99401.94
2018-05-01T17:00:47.396Z,99417.95
2018-05-01T17:03:15.892Z,99421.80
2018-05-01T17:05:44.349Z,99418.06
2018-05-01T17:08:12.812Z,99422.09
2018-05-01T17:10:41.321Z,99420.45
2018-05-01T17:13:09.787Z,99415.95
2018-05-01T17:15:38.249Z,99422.31
2018-05-01T17:18:06.744Z,99430.42
2018-05-01T17:20:35.173Z,99428.09
2018-05-01T17:23:03.652Z,99435.50
2018-05-01T17:25:32.107Z,99439.76
2018-05-01T17:28:00.653Z,99439.62
2018-05-01T17:30:29.129Z,99441.78
2018-05-01T17:32:57.588Z,99434.08
2018-05-01T17:35:26.152Z,99448.31
2018-05-01T17:37:54.620Z,99451.09
2018-05-01T17:40:23.076Z,99453.18
2018-05-01T17:42:51.565Z,99453.28
2018-05-01T17:45:20.026Z,99460.78
2018-05-01T17:47:48.516Z,99462.63
2018-05-01T17:50:17.012Z,99465.97
2018-05-01T17:52:45.500Z,99467.44
2018-05-01T17:55:13.993Z,99472.61
2018-05-01T17:57:42.488Z,99477.41
2018-05-01T18:00:10.946Z,99479.86
2018-05-01T18:02:39.437Z,99482.92
2018-05-01T18:05:07.892Z,99478.83
2018-05-01T18:07:36.388Z,99490.67
2018-05-01T18:10:04.840Z,99498.02
2018-05-01T18:12:33.361Z,99498.27
2018-05-01T18:15:01.824Z,99499.29
2018-05-01T18:17:30.288Z,99502.69
2018-05-01T18:19:58.782Z,99511.44
2018-05-01T18:22:27.254Z,99516.76
2018-05-01T18:24:55.749Z,99523.84
2018-05-01T18:27:24.237Z,99522.13
2018-05-01T18:29:52.721Z,99528.91
2018-05-01T18:32:21.182Z,99531.78
2018-05-01T18:34:49.647Z,99541.85
2018-05-01T18:37:18.136Z,99546.21
2018-05-01T18:39:46.612Z,99551.52
2018-05-01T18:42:15.108Z,99549.61
2018-05-01T18:44:43.605Z,99557.50
2018-05-01T18:47:12.056Z,99547.69
2018-05-01T18:49:40.552Z,99561.64
2018-05-01T18:52:09.044Z,99563.26
2018-05-01T18:54:37.597Z,99569.75
2018-05-01T18:57:06.104Z,99569.98
2018-05-01T18:59:34.585Z,99570.55
2018-05-01T19:02:03.085Z,99579.70
2018-05-01T19:04:31.669Z,99582.83
2018-05-01T19:07:00.101Z,99584.67
2018-05-01T19:09:28.566Z,99582.82
2018-05-01T19:11:57.047Z,99587.93
2018-05-01T19:14:25.580Z,99588.77
2018-05-01T19:16:54.073Z,99592.92
2018-05-01T19:19:22.516Z,99593.44
2018-05-01T19:21:51.000Z,99587.64
2018-05-01T19:24:19.511Z,99595.05
2018-05-01T19:26:47.982Z,99596.63
2018-05-01T19:29:16.473Z,99602.33
2018-05-01T19:31:44.944Z,99599.27
2018-05-01T19:34:13.473Z,99604.16
2018-05-01T19:36:42.004Z,99591.17
2018-05-01T19:39:10.462Z,99601.94
2018-05-01T19:41:38.923Z,99607.93
2018-05-01T19:44:07.417Z,99608.61
2018-05-01T19:46:35.931Z,99617.30
2018-05-01T19:49:04.432Z,99614.20
2018-05-01T19:51:32.924Z,99620.68
2018-05-01T19:54:01.424Z,99617.09
2018-05-01T19:56:29.959Z,99629.83
2018-05-01T19:58:58.452Z,99620.92
2018-05-01T20:01:26.969Z,99623.52
2018-05-01T20:03:55.449Z,99626.83
2018-05-01T20:06:23.949Z,99626.51
2018-05-01T20:08:52.451Z,99615.55
2018-05-01T20:11:20.945Z,99624.32
2018-05-01T20:13:49.445Z,99632.69
2018-05-01T20:16:17.940Z,99628.91
2018-05-01T20:18:46.389Z,99631.33
2018-05-01T20:21:14.844Z,99633.32
2018-05-01T20:23:43.341Z,99631.43
2018-05-01T20:26:11.808Z,99638.77
2018-05-01T20:28:40.273Z,99637.11
2018-05-01T20:31:08.772Z,99634.98
2018-05-01T20:33:37.278Z,99635.13
2018-05-01T20:36:05.767Z,99639.37
2018-05-01T20:38:34.268Z,99638.09
2018-05-01T20:41:02.763Z,99644.24
2018-05-01T20:43:31.284Z,99640.41
2018-05-01T20:45:59.808Z,99644.53
2018-05-01T20:48:28.328Z,99644.00
2018-05-01T20:50:56.824Z,99645.91
2018-05-01T20:53:25.325Z,99644.06
2018-05-01T20:55:53.772Z,99649.68
2018-05-01T20:58:22.228Z,99648.65
2018-05-01T21:00:50.724Z,99645.25
2018-05-01T21:03:19.210Z,99642.86
2018-05-01T21:05:47.672Z,99640.67
2018-05-01T21:08:16.183Z,99644.80
2018-05-01T21:10:44.704Z,99646.40
2018-05-01T21:13:13.200Z,99640.54
2018-05-01T21:15:41.656Z,99641.38
2018-05-01T21:18:10.156Z,99641.14
2018-05-01T21:20:38.640Z,99642.09
2018-05-01T21:23:07.144Z,99639.00
2018-05-01T21:25:35.620Z,99635.77
2018-05-01T21:28:04.124Z,99645.52
2018-05-01T21:30:32.591Z,99648.97
2018-05-01T21:33:01.097Z,99646.11
2018-05-01T21:35:29.578Z,99641.91
2018-05-01T21:37:58.040Z,99643.89
2018-05-01T21:40:26.537Z,99633.86
2018-05-01T21:42:55.090Z,99648.28
2018-05-01T21:45:23.578Z,99647.47
2018-05-01T21:47:52.045Z,99645.98
2018-05-01T21:50:20.517Z,99647.84
2018-05-01T21:52:48.968Z,99652.13
2018-05-01T21:55:17.451Z,99652.33
2018-05-01T21:57:45.956Z,99657.53
2018-05-01T22:00:14.424Z,99656.05
2018-05-01T22:02:42.904Z,99656.20
2018-05-01T22:05:11.407Z,99657.78
2018-05-01T22:07:39.852Z,99666.87
2018-05-01T22:10:08.387Z,99663.34
2018-05-01T22:12:36.864Z,99662.26
2018-05-01T22:15:05.373Z,99662.30
2018-05-01T22:17:33.901Z,99662.38
2018-05-01T22:20:02.365Z,99654.85
2018-05-01T22:22:30.860Z,99653.77
2018-05-01T22:24:59.308Z,99657.52
2018-05-01T22:27:27.793Z,99658.36
2018-05-01T22:29:56.256Z,99657.43
2018-05-01T22:32:24.752Z,99657.74
2018-05-01T22:34:53.201Z,99649.98
2018-05-01T22:37:21.692Z,99646.59
2018-05-01T22:39:50.137Z,99642.66
2018-05-01T22:42:18.658Z,99645.97
2018-05-01T22:44:47.124Z,99647.28
2018-05-01T22:47:15.635Z,99641.95
2018-05-01T22:49:44.125Z,99648.88
2018-05-01T22:52:12.572Z,99636.00
2018-05-01T22:54:41.065Z,99638.80
2018-05-01T22:57:09.577Z,99643.78
2018-05-01T22:59:38.070Z,99645.00
2018-05-01T23:02:06.532Z,99648.87
2018-05-01T23:04:35.072Z,99652.70
2018-05-01T23:07:03.556Z,99649.95
2018-05-01T23:09:32.061Z,99633.06
2018-05-01T23:12:00.509Z,99647.70
2018-05-01T23:14:29.043Z,99646.95
2018-05-01T23:16:57.496Z,99640.25
2018-05-01T23:19:25.998Z,99629.23
2018-05-01T23:21:54.449Z,99648.22
2018-05-01T23:24:22.920Z,99645.14
2018-05-01T23:26:51.406Z,99640.94
2018-05-01T23:29:19.901Z,99625.34
2018-05-01T23:31:48.393Z,99644.08
2018-05-01T23:34:16.845Z,99640.80
2018-05-01T23:36:45.340Z,99646.19
2018-05-01T23:39:13.787Z,99645.37
2018-05-01T23:41:42.237Z,99647.16
2018-05-01T23:44:10.712Z,99647.75
2018-05-01T23:46:39.156Z,99647.49
2018-05-01T23:49:07.660Z,99636.34
2018-05-01T23:51:36.115Z,99649.61
2018-05-01T23:54:04.631Z,99646.44
2018-05-01T23:56:33.102Z,99630.61
2018-05-01T23:59:01.601Z,99641.98
